createdAt,value
2019-05-07T00:00:43.643Z,4.50
2019-05-07T00:03:12.363Z,4.40
2019-05-07T00:05:42.743Z,4.40
2019-05-07T00:08:13.126Z,4.30
2019-05-07T00:10:42.613Z,4.30
2019-05-07T00:13:12.850Z,4.40
2019-05-07T00:15:42.120Z,4.40
2019-05-07T00:18:12.751Z,4.40
2019-05-07T00:20:42.409Z,4.30
2019-05-07T00:23:12.414Z,4.30
2019-05-07T00:25:42.316Z,4.10
2019-05-07T00:28:12.204Z,4.30
2019-05-07T00:30:42.432Z,4.30
2019-05-07T00:33:13.186Z,4.30
2019-05-07T00:35:45.946Z,4.20
2019-05-07T00:38:16.716Z,4.30
2019-05-07T00:40:47.314Z,4.30
2019-05-07T00:43:19.856Z,4.40
2019-05-07T00:45:52.730Z,4.30
2019-05-07T00:48:23.287Z,4.20
2019-05-07T00:50:52.807Z,4.20
2019-05-07T00:53:23.728Z,4.10
2019-05-07T00:55:52.794Z,4.10
2019-05-07T00:58:26.523Z,4.20
2019-05-07T01:00:53.223Z,4.10
2019-05-07T01:03:22.272Z,4.20
2019-05-07T01:05:52.762Z,4.10
2019-05-07T01:08:22.515Z,4.10
2019-05-07T01:10:52.825Z,4.10
2019-05-07T01:13:23.408Z,4.00
2019-05-07T01:15:53.367Z,4.10
2019-05-07T01:18:23.368Z,4.00
2019-05-07T01:20:53.407Z,4.00
2019-05-07T01:23:23.087Z,4.00
2019-05-07T01:25:52.773Z,4.00
2019-05-07T01:28:22.379Z,4.00
2019-05-07T01:30:52.816Z,4.00
2019-05-07T01:33:30.071Z,3.90
2019-05-07T01:36:09.728Z,3.90
2019-05-07T01:38:39.171Z,3.80
2019-05-07T01:41:08.035Z,3.80
2019-05-07T01:43:37.320Z,3.90
2019-05-07T01:46:06.678Z,3.90
2019-05-07T01:48:35.700Z,3.80
2019-05-07T01:51:04.628Z,3.80
2019-05-07T01:53:33.872Z,3.80
2019-05-07T01:56:03.403Z,3.70
2019-05-07T01:58:33.228Z,3.70
2019-05-07T02:01:03.016Z,3.70
2019-05-07T02:03:33.847Z,3.60
2019-05-07T02:06:04.255Z,3.60
2019-05-07T02:08:42.295Z,3.50
2019-05-07T02:11:13.232Z,3.40
2019-05-07T02:13:41.996Z,3.40
2019-05-07T02:16:12.445Z,3.50
2019-05-07T02:18:42.491Z,3.50
2019-05-07T02:21:12.853Z,3.40
2019-05-07T02:23:42.593Z,3.40
2019-05-07T02:26:13.347Z,3.40
2019-05-07T02:28:42.769Z,3.30
2019-05-07T02:31:15.114Z,3.30
2019-05-07T02:33:43.649Z,3.30
2019-05-07T02:36:14.203Z,3.40
2019-05-07T02:38:45.419Z,3.40
2019-05-07T02:41:16.179Z,3.40
2019-05-07T02:43:45.141Z,3.50
2019-05-07T02:46:32.998Z,3.50
2019-05-07T02:49:14.257Z,3.40
2019-05-07T02:51:44.358Z,3.40
2019-05-07T02:54:15.011Z,3.30
2019-05-07T02:56:43.583Z,3.20
2019-05-07T02:59:13.672Z,3.20
2019-05-07T03:01:43.353Z,3.20
2019-05-07T03:04:13.012Z,3.10
2019-05-07T03:06:44.242Z,3.20
2019-05-07T03:09:14.500Z,3.20
2019-05-07T03:11:44.113Z,3.20
2019-05-07T03:14:14.170Z,3.20
2019-05-07T03:16:48.965Z,3.10
2019-05-07T03:19:15.206Z,3.20
2019-05-07T03:21:56.459Z,3.20
2019-05-07T03:24:27.120Z,3.20
2019-05-07T03:26:55.319Z,3.20
2019-05-07T03:29:25.624Z,3.20
2019-05-07T03:32:06.113Z,3.10
2019-05-07T03:34:36.725Z,3.10
2019-05-07T03:37:06.863Z,3.00
2019-05-07T03:39:35.913Z,3.10
2019-05-07T03:42:05.146Z,3.10
2019-05-07T03:44:39.133Z,3.00
2019-05-07T03:47:28.281Z,2.90
2019-05-07T03:49:57.591Z,3.00
2019-05-07T03:52:26.641Z,3.00
2019-05-07T03:54:55.839Z,3.00
2019-05-07T03:57:25.382Z,3.00
2019-05-07T03:59:54.378Z,3.00
2019-05-07T04:02:24.145Z,2.80
2019-05-07T04:04:53.490Z,2.80
2019-05-07T04:07:23.232Z,2.80
2019-05-07T04:09:53.445Z,2.80
2019-05-07T04:12:23.836Z,2.90
2019-05-07T04:14:53.735Z,2.90
2019-05-07T04:17:26.859Z,3.00
2019-05-07T04:19:54.409Z,3.00
2019-05-07T04:22:28.322Z,3.00
2019-05-07T04:25:05.285Z,3.20
2019-05-07T04:27:46.684Z,3.10
2019-05-07T04:30:13.029Z,3.10
2019-05-07T04:32:46.803Z,3.10
2019-05-07T04:35:17.538Z,3.20
2019-05-07T04:37:46.438Z,3.20
2019-05-07T04:40:15.320Z,3.30
2019-05-07T04:42:44.767Z,3.30
2019-05-07T04:45:14.185Z,3.30
2019-05-07T04:47:47.447Z,3.20
2019-05-07T04:50:32.960Z,3.30
2019-05-07T04:52:46.593Z,3.40
2019-05-07T04:55:15.527Z,3.40
2019-05-07T04:57:44.743Z,3.50
2019-05-07T05:00:14.137Z,3.60
2019-05-07T05:02:53.768Z,3.60
2019-05-07T05:05:23.853Z,3.70
2019-05-07T05:07:53.474Z,3.70
2019-05-07T05:10:23.342Z,3.70
2019-05-07T05:12:53.612Z,3.80
2019-05-07T05:15:23.103Z,3.90
2019-05-07T05:17:54.062Z,4.00
2019-05-07T05:20:24.392Z,4.10
2019-05-07T05:22:57.135Z,4.20
2019-05-07T05:25:32.310Z,4.30
2019-05-07T05:28:02.126Z,4.40
2019-05-07T05:30:38.885Z,4.40
2019-05-07T05:33:07.752Z,4.50
2019-05-07T05:35:37.484Z,4.60
2019-05-07T05:38:06.610Z,4.80
2019-05-07T05:40:35.936Z,4.90
2019-05-07T05:43:07.018Z,5.10
2019-05-07T05:45:37.553Z,6.10
2019-05-07T05:48:08.457Z,8.30
2019-05-07T05:50:42.620Z,10.20
2019-05-07T05:53:43.362Z,9.90
2019-05-07T05:56:13.844Z,11.40
2019-05-07T05:58:59.558Z,12.20
2019-05-07T06:01:39.079Z,13.30
2019-05-07T06:04:27.729Z,13.30
2019-05-07T06:07:08.777Z,12.50
2019-05-07T06:09:38.312Z,10.70
2019-05-07T06:12:25.447Z,10.90
2019-05-07T06:15:07.542Z,10.50
2019-05-07T06:17:38.100Z,10.60
2019-05-07T06:20:13.297Z,10.60
2019-05-07T06:22:46.672Z,10.80
2019-05-07T06:25:24.308Z,10.00
2019-05-07T06:27:52.586Z,10.00
2019-05-07T06:30:22.762Z,10.60
2019-05-07T06:32:52.372Z,10.90
2019-05-07T06:35:23.018Z,10.80
2019-05-07T06:37:52.161Z,10.30
2019-05-07T06:40:33.930Z,10.30
2019-05-07T06:43:07.110Z,10.30
2019-05-07T06:45:37.748Z,10.60
2019-05-07T06:48:05.803Z,11.10
2019-05-07T06:50:34.803Z,11.10
2019-05-07T06:53:03.895Z,11.10
2019-05-07T06:55:32.963Z,11.10
2019-05-07T06:58:02.684Z,11.00
2019-05-07T07:00:33.440Z,11.00
2019-05-07T07:03:16.055Z,11.50
2019-05-07T07:05:46.564Z,11.50
2019-05-07T07:08:26.327Z,11.20
2019-05-07T07:11:13.029Z,11.30
2019-05-07T07:13:42.668Z,11.40
2019-05-07T07:16:12.670Z,11.30
2019-05-07T07:18:49.554Z,11.50
2019-05-07T07:21:12.510Z,11.80
2019-05-07T07:23:42.968Z,12.20
2019-05-07T07:26:12.697Z,12.40
2019-05-07T07:28:42.935Z,12.60
2019-05-07T07:31:33.549Z,12.80
2019-05-07T07:34:03.751Z,12.70
2019-05-07T07:36:34.277Z,12.60
2019-05-07T07:39:06.885Z,12.50
2019-05-07T07:41:42.121Z,12.50
2019-05-07T07:44:13.219Z,12.80
2019-05-07T07:46:42.441Z,12.80
2019-05-07T07:49:14.964Z,12.80
2019-05-07T07:51:45.163Z,12.30
2019-05-07T07:54:13.119Z,12.60
2019-05-07T07:56:55.589Z,13.10
2019-05-07T07:59:29.310Z,13.20
2019-05-07T08:02:09.048Z,13.60
2019-05-07T08:04:37.948Z,13.40
2019-05-07T08:07:06.948Z,13.50
2019-05-07T08:09:36.070Z,13.20
2019-05-07T08:12:05.226Z,12.50
2019-05-07T08:14:34.331Z,12.50
2019-05-07T08:17:04.848Z,12.30
2019-05-07T08:19:37.057Z,12.00
2019-05-07T08:22:05.973Z,11.60
2019-05-07T08:24:34.993Z,11.70
2019-05-07T08:27:03.959Z,11.80
2019-05-07T08:29:32.832Z,11.90
2019-05-07T08:32:04.020Z,12.40
2019-05-07T08:34:42.761Z,12.80
2019-05-07T08:37:12.047Z,13.20
2019-05-07T08:39:42.884Z,13.30
2019-05-07T08:42:12.271Z,13.70
2019-05-07T08:44:43.073Z,14.00
2019-05-07T08:47:31.963Z,14.20
2019-05-07T08:50:02.864Z,14.30
2019-05-07T08:52:32.580Z,14.70
2019-05-07T08:55:02.145Z,15.00
2019-05-07T08:57:31.916Z,15.00
2019-05-07T09:00:02.275Z,15.40
2019-05-07T09:02:32.649Z,15.40
2019-05-07T09:05:03.007Z,15.70
2019-05-07T09:07:32.267Z,15.80
2019-05-07T09:10:02.486Z,16.50
2019-05-07T09:12:31.911Z,16.70
2019-05-07T09:15:02.239Z,16.80
2019-05-07T09:17:31.835Z,17.00
2019-05-07T09:20:02.603Z,16.80
2019-05-07T09:22:32.454Z,17.10
2019-05-07T09:25:03.118Z,17.30
2019-05-07T09:27:34.463Z,17.20
2019-05-07T09:30:12.805Z,17.10
2019-05-07T09:32:43.584Z,17.30
2019-05-07T09:35:13.341Z,16.90
2019-05-07T09:37:42.247Z,16.50
2019-05-07T09:40:12.613Z,16.80
2019-05-07T09:42:42.215Z,17.00
2019-05-07T09:45:12.092Z,16.70
2019-05-07T09:47:41.794Z,16.70
2019-05-07T09:50:11.842Z,16.40
2019-05-07T09:52:42.702Z,16.50
2019-05-07T09:55:17.169Z,15.80
2019-05-07T09:57:42.541Z,15.90
2019-05-07T10:00:13.095Z,14.30
2019-05-07T10:02:42.525Z,14.30
2019-05-07T10:05:11.396Z,14.00
2019-05-07T10:07:42.208Z,14.00
2019-05-07T10:10:11.987Z,14.00
2019-05-07T10:12:42.467Z,14.30
2019-05-07T10:15:12.311Z,14.60
2019-05-07T10:17:45.985Z,15.00
2019-05-07T10:20:21.712Z,14.60
2019-05-07T10:22:46.528Z,14.20
2019-05-07T10:25:15.406Z,13.90
2019-05-07T10:27:44.207Z,13.40
2019-05-07T10:30:13.095Z,13.60
2019-05-07T10:32:42.374Z,13.60
2019-05-07T10:35:12.833Z,14.00
2019-05-07T10:37:42.390Z,14.00
2019-05-07T10:40:13.040Z,14.40
2019-05-07T10:42:43.088Z,14.70
2019-05-07T10:45:32.340Z,15.00
2019-05-07T10:48:06.052Z,14.80
2019-05-07T10:50:39.302Z,14.50
2019-05-07T10:53:07.406Z,14.80
2019-05-07T10:55:36.212Z,14.80
2019-05-07T10:58:06.944Z,14.90
2019-05-07T11:00:35.081Z,15.00
2019-05-07T11:03:06.039Z,14.80
2019-05-07T11:05:34.798Z,15.00
2019-05-07T11:08:03.907Z,15.10
2019-05-07T11:10:32.910Z,15.40
2019-05-07T11:13:02.390Z,15.40
2019-05-07T11:15:32.692Z,15.20
2019-05-07T11:18:21.713Z,15.40
2019-05-07T11:20:51.156Z,15.50
2019-05-07T11:23:22.234Z,15.00
2019-05-07T11:25:52.690Z,15.30
2019-05-07T11:28:22.705Z,15.60
2019-05-07T11:30:51.774Z,15.70
2019-05-07T11:33:22.126Z,15.70
2019-05-07T11:35:52.827Z,15.50
2019-05-07T11:38:24.808Z,15.50
2019-05-07T11:40:52.368Z,15.20
2019-05-07T11:43:39.382Z,15.40
2019-05-07T11:46:15.729Z,15.40
2019-05-07T11:48:47.800Z,15.70
2019-05-07T11:51:34.399Z,15.80
2019-05-07T11:54:12.413Z,15.80
2019-05-07T11:56:42.234Z,15.50
2019-05-07T11:59:13.094Z,15.60
2019-05-07T12:01:47.197Z,16.00
2019-05-07T12:04:13.221Z,16.40
2019-05-07T12:06:42.139Z,16.60
2019-05-07T12:09:12.112Z,16.50
2019-05-07T12:11:42.539Z,16.80
2019-05-07T12:14:12.388Z,16.60
2019-05-07T12:16:42.591Z,16.60
2019-05-07T12:19:13.754Z,16.60
2019-05-07T12:21:42.792Z,16.90
2019-05-07T12:24:12.549Z,17.40
2019-05-07T12:26:43.798Z,17.60
2019-05-07T12:29:12.575Z,17.90
2019-05-07T12:31:46.124Z,18.10
2019-05-07T12:34:16.764Z,17.60
2019-05-07T12:36:45.058Z,17.80
2019-05-07T12:39:14.077Z,17.80
2019-05-07T12:41:42.985Z,18.10
2019-05-07T12:44:13.032Z,18.20
2019-05-07T12:46:42.517Z,18.10
2019-05-07T12:49:13.073Z,17.70
2019-05-07T12:51:46.876Z,17.40
2019-05-07T12:54:26.524Z,17.30
2019-05-07T12:56:55.614Z,18.00
2019-05-07T12:59:24.607Z,18.50
2019-05-07T13:02:18.116Z,18.80
2019-05-07T13:04:36.016Z,19.00
2019-05-07T13:07:11.794Z,17.80
2019-05-07T13:09:42.423Z,17.90
2019-05-07T13:12:11.098Z,17.70
2019-05-07T13:14:40.000Z,17.30
2019-05-07T13:17:08.957Z,16.40
2019-05-07T13:19:39.228Z,16.00
2019-05-07T13:22:08.467Z,15.90
2019-05-07T13:24:37.459Z,16.40
2019-05-07T13:27:06.376Z,16.30
2019-05-07T13:29:35.312Z,16.60
2019-05-07T13:32:05.179Z,16.20
2019-05-07T13:34:34.394Z,15.90
2019-05-07T13:37:07.556Z,16.10
2019-05-07T13:39:38.271Z,16.30
2019-05-07T13:42:08.802Z,16.60
2019-05-07T13:44:57.262Z,16.20
2019-05-07T13:47:27.689Z,15.90
2019-05-07T13:49:56.604Z,15.80
2019-05-07T13:52:26.875Z,15.90
2019-05-07T13:54:55.808Z,15.90
2019-05-07T13:57:24.893Z,16.40
2019-05-07T13:59:54.410Z,16.20
2019-05-07T14:02:29.019Z,15.90
2019-05-07T14:04:57.903Z,15.50
2019-05-07T14:07:28.082Z,15.40
2019-05-07T14:09:58.961Z,16.00
2019-05-07T14:12:28.174Z,16.20
2019-05-07T14:14:57.260Z,16.20
2019-05-07T14:17:25.989Z,15.90
2019-05-07T14:19:55.139Z,16.10
2019-05-07T14:22:24.063Z,15.70
2019-05-07T14:24:53.220Z,16.00
2019-05-07T14:27:22.345Z,16.20
2019-05-07T14:29:51.974Z,16.30
2019-05-07T14:32:41.919Z,16.40
2019-05-07T14:35:12.325Z,16.30
2019-05-07T14:37:42.973Z,15.90
2019-05-07T14:40:12.945Z,15.60
2019-05-07T14:42:43.715Z,15.20
2019-05-07T14:45:12.706Z,15.10
2019-05-07T14:47:44.394Z,15.00
2019-05-07T14:50:12.333Z,15.20
2019-05-07T14:52:43.246Z,14.60
2019-05-07T14:55:12.794Z,14.80
2019-05-07T14:57:43.671Z,14.80
2019-05-07T15:00:12.205Z,15.00
2019-05-07T15:02:42.116Z,14.60
2019-05-07T15:05:12.149Z,14.40
2019-05-07T15:07:41.202Z,14.20
2019-05-07T15:10:10.046Z,14.20
2019-05-07T15:12:38.999Z,14.20
2019-05-07T15:15:09.347Z,14.40
2019-05-07T15:17:42.220Z,14.40
2019-05-07T15:20:11.310Z,14.40
2019-05-07T15:22:49.588Z,14.30
2019-05-07T15:25:15.440Z,14.20
2019-05-07T15:27:45.645Z,14.20
2019-05-07T15:30:14.643Z,14.30
2019-05-07T15:32:44.882Z,14.40
2019-05-07T15:35:15.233Z,14.30
2019-05-07T15:37:44.171Z,13.90
2019-05-07T15:40:13.169Z,13.90
2019-05-07T15:42:42.229Z,14.00
2019-05-07T15:45:12.589Z,14.00
2019-05-07T15:47:43.415Z,14.00
2019-05-07T15:50:12.636Z,13.90
2019-05-07T15:52:43.255Z,13.80
2019-05-07T15:55:12.148Z,13.70
2019-05-07T15:57:42.790Z,13.70
2019-05-07T16:00:21.641Z,13.70
2019-05-07T16:02:53.549Z,13.60
2019-05-07T16:05:22.460Z,13.50
2019-05-07T16:07:52.146Z,13.60
2019-05-07T16:10:23.350Z,13.50
2019-05-07T16:12:53.044Z,13.40
2019-05-07T16:15:22.528Z,13.30
2019-05-07T16:17:59.382Z,13.00
2019-05-07T16:20:28.272Z,13.10
2019-05-07T16:23:14.438Z,12.80
2019-05-07T16:25:33.886Z,12.70
2019-05-07T16:28:04.942Z,12.60
2019-05-07T16:30:33.459Z,12.50
2019-05-07T16:33:02.584Z,12.50
2019-05-07T16:35:32.042Z,12.50
2019-05-07T16:38:01.350Z,12.50
2019-05-07T16:40:32.347Z,12.40
2019-05-07T16:43:02.808Z,12.50
2019-05-07T16:45:31.835Z,12.50
2019-05-07T16:48:02.749Z,12.50
2019-05-07T16:50:32.640Z,12.50
2019-05-07T16:53:02.823Z,12.50
2019-05-07T16:55:36.743Z,12.50
2019-05-07T16:58:07.245Z,12.40
2019-05-07T17:00:36.892Z,12.40
2019-05-07T17:03:07.584Z,12.50
2019-05-07T17:05:35.948Z,12.40
2019-05-07T17:08:06.670Z,12.40
2019-05-07T17:10:34.822Z,12.50
2019-05-07T17:13:05.067Z,12.50
2019-05-07T17:15:35.587Z,12.50
2019-05-07T17:18:04.475Z,12.60
2019-05-07T17:20:33.579Z,12.60
2019-05-07T17:23:03.101Z,12.60
2019-05-07T17:25:39.033Z,12.60
2019-05-07T17:28:08.125Z,12.60
2019-05-07T17:30:37.820Z,12.60
2019-05-07T17:33:07.255Z,12.60
2019-05-07T17:35:36.165Z,12.60
2019-05-07T17:38:09.495Z,12.60
2019-05-07T17:40:37.078Z,12.60
2019-05-07T17:43:05.977Z,12.60
2019-05-07T17:45:34.868Z,12.60
2019-05-07T17:48:03.757Z,12.60
2019-05-07T17:50:37.163Z,12.60
2019-05-07T17:53:06.044Z,12.60
2019-05-07T17:55:35.142Z,12.60
2019-05-07T17:58:04.139Z,12.60
2019-05-07T18:00:33.033Z,12.60
2019-05-07T18:03:19.627Z,12.70
2019-05-07T18:05:48.512Z,12.50
2019-05-07T18:08:17.406Z,12.30
2019-05-07T18:10:46.398Z,12.10
2019-05-07T18:13:15.284Z,11.90
2019-05-07T18:15:44.187Z,12.10
2019-05-07T18:18:13.167Z,12.10
2019-05-07T18:20:42.267Z,12.10
2019-05-07T18:23:16.643Z,12.10
2019-05-07T18:25:42.881Z,11.90
2019-05-07T18:28:12.423Z,11.80
2019-05-07T18:30:41.414Z,11.80
2019-05-07T18:33:14.797Z,11.70
2019-05-07T18:36:06.119Z,11.70
2019-05-07T18:38:35.010Z,11.70
2019-05-07T18:41:04.002Z,11.70
2019-05-07T18:43:33.307Z,11.80
2019-05-07T18:46:02.492Z,11.70
2019-05-07T18:48:31.289Z,11.80
2019-05-07T18:51:02.527Z,11.70
2019-05-07T18:53:31.782Z,11.70
2019-05-07T18:56:01.958Z,11.80
2019-05-07T18:58:31.962Z,11.70
2019-05-07T19:01:02.726Z,11.70
2019-05-07T19:03:32.506Z,11.60
2019-05-07T19:06:03.239Z,11.60
2019-05-07T19:08:32.704Z,11.60
2019-05-07T19:11:05.554Z,11.60
2019-05-07T19:13:34.114Z,11.60
2019-05-07T19:16:03.200Z,11.50
2019-05-07T19:18:32.368Z,11.40
2019-05-07T19:21:01.395Z,11.30
2019-05-07T19:23:30.295Z,11.30
2019-05-07T19:25:59.272Z,11.20
2019-05-07T19:28:30.117Z,11.20
2019-05-07T19:30:58.401Z,11.20
2019-05-07T19:33:27.379Z,11.10
2019-05-07T19:35:56.339Z,11.00
2019-05-07T19:38:25.062Z,11.00
2019-05-07T19:40:55.503Z,11.00
2019-05-07T19:43:24.489Z,10.90
2019-05-07T19:45:53.417Z,11.00
2019-05-07T19:48:23.119Z,10.90
2019-05-07T19:50:53.924Z,10.80
2019-05-07T19:53:23.626Z,10.70
2019-05-07T19:56:11.057Z,10.70
2019-05-07T19:58:41.791Z,10.50
2019-05-07T20:01:12.093Z,10.50
2019-05-07T20:03:43.456Z,10.40
2019-05-07T20:06:12.972Z,10.30
2019-05-07T20:08:43.728Z,10.30
2019-05-07T20:11:25.698Z,10.10
2019-05-07T20:13:54.770Z,10.00
2019-05-07T20:16:23.838Z,10.00
2019-05-07T20:18:52.833Z,10.00
2019-05-07T20:21:23.088Z,10.00
2019-05-07T20:23:52.818Z,10.10
2019-05-07T20:26:23.335Z,10.00
2019-05-07T20:28:53.491Z,9.90
2019-05-07T20:31:22.923Z,9.80
2019-05-07T20:33:53.041Z,9.70
2019-05-07T20:36:22.477Z,9.70
2019-05-07T20:38:52.165Z,9.70
2019-05-07T20:41:23.290Z,9.50
2019-05-07T20:43:52.457Z,9.40
2019-05-07T20:46:21.912Z,9.40
2019-05-07T20:48:52.622Z,9.30
2019-05-07T20:51:23.103Z,9.40
2019-05-07T20:53:56.636Z,9.30
2019-05-07T20:56:41.830Z,9.30
2019-05-07T20:59:12.338Z,9.30
2019-05-07T21:01:42.000Z,9.40
2019-05-07T21:04:12.923Z,9.40
2019-05-07T21:06:43.136Z,9.30
2019-05-07T21:09:12.593Z,9.30
2019-05-07T21:11:43.062Z,9.30
2019-05-07T21:14:12.382Z,9.20
2019-05-07T21:16:42.489Z,9.00
2019-05-07T21:19:12.809Z,9.10
2019-05-07T21:21:42.270Z,9.00
2019-05-07T21:24:12.986Z,8.90
2019-05-07T21:26:42.479Z,8.90
2019-05-07T21:29:13.763Z,8.90
2019-05-07T21:31:43.077Z,8.90
2019-05-07T21:34:12.703Z,8.70
2019-05-07T21:36:43.182Z,8.80
2019-05-07T21:39:12.968Z,8.80
2019-05-07T21:41:42.772Z,8.70
2019-05-07T21:44:12.379Z,8.70
2019-05-07T21:46:42.554Z,8.60
2019-05-07T21:49:12.221Z,8.50
2019-05-07T21:51:41.598Z,8.60
2019-05-07T21:54:15.000Z,8.50
2019-05-07T21:56:48.791Z,8.40
2019-05-07T21:59:22.198Z,8.40
2019-05-07T22:01:52.726Z,8.40
2019-05-07T22:04:21.034Z,8.30
2019-05-07T22:06:52.173Z,8.30
2019-05-07T22:09:22.178Z,8.40
2019-05-07T22:11:53.520Z,8.40
2019-05-07T22:14:22.183Z,8.30
2019-05-07T22:16:54.275Z,8.20
2019-05-07T22:19:21.777Z,8.20
2019-05-07T22:21:52.320Z,8.10
2019-05-07T22:24:22.334Z,8.00
2019-05-07T22:26:51.146Z,8.10
2019-05-07T22:29:20.022Z,8.10
2019-05-07T22:31:53.313Z,8.00
2019-05-07T22:34:26.288Z,7.80
2019-05-07T22:36:55.201Z,7.80
2019-05-07T22:39:24.178Z,7.80
2019-05-07T22:41:52.965Z,7.90
2019-05-07T22:44:25.877Z,7.80
2019-05-07T22:46:53.922Z,7.70
2019-05-07T22:49:22.946Z,7.60
2019-05-07T22:51:54.590Z,7.70
2019-05-07T22:54:22.704Z,7.50
2019-05-07T22:57:05.350Z,7.60
2019-05-07T22:59:34.141Z,7.40
2019-05-07T23:02:03.852Z,7.40
2019-05-07T23:04:32.750Z,7.40
2019-05-07T23:07:02.238Z,7.30
2019-05-07T23:09:31.036Z,7.40
2019-05-07T23:12:01.750Z,7.40
2019-05-07T23:14:30.350Z,7.30
2019-05-07T23:16:59.237Z,7.10
2019-05-07T23:19:29.671Z,7.00
2019-05-07T23:21:58.455Z,7.10
2019-05-07T23:24:27.170Z,7.10
2019-05-07T23:26:56.136Z,7.00
2019-05-07T23:29:24.914Z,6.90
2019-05-07T23:31:55.251Z,6.90
2019-05-07T23:34:26.072Z,7.00
2019-05-07T23:36:54.762Z,6.90
2019-05-07T23:39:25.295Z,6.80
2019-05-07T23:42:04.725Z,6.60
2019-05-07T23:44:33.613Z,6.50
2019-05-07T23:47:02.870Z,6.50
2019-05-07T23:49:32.309Z,6.50
2019-05-07T23:52:02.431Z,6.50
2019-05-07T23:54:31.862Z,6.50
2019-05-07T23:57:07.133Z,6.40
2019-05-07T23:59:32.889Z,6.50
